sensor_id;sensor_type;location;lat;lon;timestamp;P1;durP1;ratioP1;P2;durP2;ratioP2
9970;SDS011;5026;51.494;11.974;2022-12-05T00:02:16;168.63;;;43.13;;
9970;SDS011;5026;51.494;11.974;2022-12-05T00:04:42;180.43;;;42.00;;
9970;SDS011;5026;51.494;11.974;2022-12-05T00:07:10;157.03;;;43.53;;
9970;SDS011;5026;51.494;11.974;2022-12-05T00:09:36;194.33;;;44.87;;
9970;SDS011;5026;51.494;11.974;2022-12-05T00:12:04;195.43;;;44.37;;
9970;SDS011;5026;51.494;11.974;2022-12-05T00:14:31;159.30;;;41.83;;
9970;SDS011;5026;51.494;11.974;2022-12-05T00:16:58;174.67;;;43.37;;
9970;SDS011;5026;51.494;11.974;2022-12-05T00:19:26;175.17;;;43.90;;
9970;SDS011;5026;51.494;11.974;2022-12-05T00:21:53;208.53;;;46.73;;
9970;SDS011;5026;51.494;11.974;2022-12-05T00:24:21;171.70;;;43.17;;
9970;SDS011;5026;51.494;11.974;2022-12-05T00:26:48;163.33;;;42.13;;
9970;SDS011;5026;51.494;11.974;2022-12-05T00:29:15;143.90;;;42.10;;
9970;SDS011;5026;51.494;11.974;2022-12-05T00:31:43;162.20;;;42.17;;
9970;SDS011;5026;51.494;11.974;2022-12-05T00:34:10;163.43;;;44.77;;
9970;SDS011;5026;51.494;11.974;2022-12-05T00:36:38;148.23;;;41.23;;
9970;SDS011;5026;51.494;11.974;2022-12-05T00:39:06;146.10;;;39.93;;
9970;SDS011;5026;51.494;11.974;2022-12-05T00:41:34;140.57;;;40.13;;
9970;SDS011;5026;51.494;11.974;2022-12-05T00:44:01;148.70;;;39.73;;
9970;SDS011;5026;51.494;11.974;2022-12-05T00:46:29;153.30;;;40.70;;
9970;SDS011;5026;51.494;11.974;2022-12-05T00:48:58;149.17;;;39.67;;
9970;SDS011;5026;51.494;11.974;2022-12-05T00:51:26;132.03;;;39.43;;
9970;SDS011;5026;51.494;11.974;2022-12-05T00:53:56;135.07;;;40.10;;
9970;SDS011;5026;51.494;11.974;2022-12-05T00:56:24;142.00;;;38.63;;
9970;SDS011;5026;51.494;11.974;2022-12-05T00:58:52;128.67;;;37.57;;
9970;SDS011;5026;51.494;11.974;2022-12-05T01:01:21;141.47;;;39.80;;
9970;SDS011;5026;51.494;11.974;2022-12-05T01:03:50;149.07;;;39.33;;
9970;SDS011;5026;51.494;11.974;2022-12-05T01:06:21;150.50;;;39.73;;
9970;SDS011;5026;51.494;11.974;2022-12-05T01:08:49;147.87;;;41.93;;
9970;SDS011;5026;51.494;11.974;2022-12-05T01:11:19;145.70;;;40.33;;
9970;SDS011;5026;51.494;11.974;2022-12-05T01:13:47;158.10;;;40.90;;
9970;SDS011;5026;51.494;11.974;2022-12-05T01:16:14;141.20;;;42.10;;
9970;SDS011;5026;51.494;11.974;2022-12-05T01:18:42;135.90;;;37.83;;
9970;SDS011;5026;51.494;11.974;2022-12-05T01:21:09;163.13;;;40.63;;
9970;SDS011;5026;51.494;11.974;2022-12-05T01:23:36;141.47;;;38.67;;
9970;SDS011;5026;51.494;11.974;2022-12-05T01:26:04;163.03;;;40.33;;
9970;SDS011;5026;51.494;11.974;2022-12-05T01:28:34;181.63;;;40.97;;
9970;SDS011;5026;51.494;11.974;2022-12-05T01:31:03;150.77;;;39.23;;
9970;SDS011;5026;51.494;11.974;2022-12-05T01:33:32;168.90;;;40.77;;
9970;SDS011;5026;51.494;11.974;2022-12-05T01:35:59;165.13;;;41.57;;
9970;SDS011;5026;51.494;11.974;2022-12-05T01:38:26;176.77;;;42.00;;
9970;SDS011;5026;51.494;11.974;2022-12-05T01:41:00;178.10;;;42.03;;
9970;SDS011;5026;51.494;11.974;2022-12-05T01:43:28;150.33;;;41.13;;
9970;SDS011;5026;51.494;11.974;2022-12-05T01:45:56;174.20;;;42.73;;
9970;SDS011;5026;51.494;11.974;2022-12-05T01:48:24;180.50;;;43.57;;
9970;SDS011;5026;51.494;11.974;2022-12-05T01:50:53;166.43;;;42.13;;
9970;SDS011;5026;51.494;11.974;2022-12-05T01:53:20;159.03;;;41.60;;
9970;SDS011;5026;51.494;11.974;2022-12-05T01:55:48;174.77;;;41.23;;
9970;SDS011;5026;51.494;11.974;2022-12-05T01:58:17;153.33;;;40.67;;
9970;SDS011;5026;51.494;11.974;2022-12-05T02:00:44;171.93;;;43.63;;
9970;SDS011;5026;51.494;11.974;2022-12-05T02:03:16;178.63;;;41.70;;
9970;SDS011;5026;51.494;11.974;2022-12-05T02:05:45;197.40;;;41.87;;
9970;SDS011;5026;51.494;11.974;2022-12-05T02:08:14;168.20;;;41.20;;
9970;SDS011;5026;51.494;11.974;2022-12-05T02:10:42;174.47;;;41.73;;
9970;SDS011;5026;51.494;11.974;2022-12-05T02:13:15;167.10;;;43.03;;
9970;SDS011;5026;51.494;11.974;2022-12-05T02:15:55;147.93;;;39.00;;
9970;SDS011;5026;51.494;11.974;2022-12-05T02:18:35;142.27;;;41.07;;
9970;SDS011;5026;51.494;11.974;2022-12-05T02:21:22;157.00;;;40.60;;
9970;SDS011;5026;51.494;11.974;2022-12-05T02:24:10;192.83;;;41.20;;
9970;SDS011;5026;51.494;11.974;2022-12-05T02:26:55;158.80;;;40.40;;
9970;SDS011;5026;51.494;11.974;2022-12-05T02:32:30;146.27;;;38.10;;
9970;SDS011;5026;51.494;11.974;2022-12-05T02:35:12;154.27;;;40.07;;
9970;SDS011;5026;51.494;11.974;2022-12-05T02:37:48;168.47;;;41.80;;
9970;SDS011;5026;51.494;11.974;2022-12-05T02:40:20;137.43;;;40.40;;
9970;SDS011;5026;51.494;11.974;2022-12-05T02:42:54;130.43;;;39.80;;
9970;SDS011;5026;51.494;11.974;2022-12-05T02:45:26;144.63;;;39.80;;
9970;SDS011;5026;51.494;11.974;2022-12-05T02:48:02;189.60;;;39.57;;
9970;SDS011;5026;51.494;11.974;2022-12-05T02:50:31;136.43;;;38.30;;
9970;SDS011;5026;51.494;11.974;2022-12-05T02:53:02;121.93;;;35.83;;
9970;SDS011;5026;51.494;11.974;2022-12-05T02:55:33;127.03;;;37.83;;
9970;SDS011;5026;51.494;11.974;2022-12-05T02:58:02;125.20;;;37.23;;
9970;SDS011;5026;51.494;11.974;2022-12-05T03:00:34;138.17;;;35.93;;
9970;SDS011;5026;51.494;11.974;2022-12-05T03:03:05;125.43;;;37.60;;
9970;SDS011;5026;51.494;11.974;2022-12-05T03:05:40;125.43;;;37.60;;
9970;SDS011;5026;51.494;11.974;2022-12-05T03:08:13;123.90;;;35.87;;
9970;SDS011;5026;51.494;11.974;2022-12-05T03:10:43;140.57;;;36.63;;
9970;SDS011;5026;51.494;11.974;2022-12-05T03:13:12;122.93;;;35.20;;
9970;SDS011;5026;51.494;11.974;2022-12-05T03:15:46;110.57;;;33.73;;
9970;SDS011;5026;51.494;11.974;2022-12-05T03:18:16;117.53;;;36.70;;
9970;SDS011;5026;51.494;11.974;2022-12-05T03:20:48;105.47;;;35.33;;
9970;SDS011;5026;51.494;11.974;2022-12-05T03:23:21;113.83;;;35.33;;
9970;SDS011;5026;51.494;11.974;2022-12-05T03:25:51;96.70;;;32.90;;
9970;SDS011;5026;51.494;11.974;2022-12-05T03:28:28;99.57;;;34.13;;
9970;SDS011;5026;51.494;11.974;2022-12-05T03:31:01;106.63;;;33.87;;
9970;SDS011;5026;51.494;11.974;2022-12-05T03:33:34;93.43;;;31.90;;
9970;SDS011;5026;51.494;11.974;2022-12-05T03:36:08;98.80;;;32.40;;
9970;SDS011;5026;51.494;11.974;2022-12-05T03:38:42;102.20;;;33.13;;
9970;SDS011;5026;51.494;11.974;2022-12-05T03:41:15;87.47;;;31.60;;
9970;SDS011;5026;51.494;11.974;2022-12-05T03:43:51;92.73;;;31.37;;
9970;SDS011;5026;51.494;11.974;2022-12-05T03:46:23;89.10;;;31.53;;
9970;SDS011;5026;51.494;11.974;2022-12-05T03:48:53;87.00;;;29.43;;
9970;SDS011;5026;51.494;11.974;2022-12-05T03:51:24;87.60;;;29.20;;
9970;SDS011;5026;51.494;11.974;2022-12-05T03:54:09;84.97;;;29.50;;
9970;SDS011;5026;51.494;11.974;2022-12-05T03:56:43;72.43;;;28.63;;
9970;SDS011;5026;51.494;11.974;2022-12-05T03:59:15;79.53;;;27.67;;
9970;SDS011;5026;51.494;11.974;2022-12-05T04:01:53;72.27;;;27.27;;
9970;SDS011;5026;51.494;11.974;2022-12-05T04:04:24;73.60;;;27.60;;
9970;SDS011;5026;51.494;11.974;2022-12-05T04:06:55;70.37;;;26.93;;
9970;SDS011;5026;51.494;11.974;2022-12-05T04:09:26;76.03;;;27.60;;
9970;SDS011;5026;51.494;11.974;2022-12-05T04:11:58;69.17;;;27.43;;
9970;SDS011;5026;51.494;11.974;2022-12-05T04:14:29;67.67;;;24.57;;
9970;SDS011;5026;51.494;11.974;2022-12-05T04:17:09;64.67;;;25.03;;
9970;SDS011;5026;51.494;11.974;2022-12-05T04:19:41;60.13;;;25.43;;
9970;SDS011;5026;51.494;11.974;2022-12-05T04:22:29;64.60;;;25.30;;
9970;SDS011;5026;51.494;11.974;2022-12-05T04:24:57;65.80;;;24.23;;
9970;SDS011;5026;51.494;11.974;2022-12-05T04:27:47;54.40;;;22.40;;
9970;SDS011;5026;51.494;11.974;2022-12-05T04:30:20;60.27;;;23.23;;
9970;SDS011;5026;51.494;11.974;2022-12-05T04:32:51;53.97;;;22.50;;
9970;SDS011;5026;51.494;11.974;2022-12-05T04:35:26;50.97;;;22.50;;
9970;SDS011;5026;51.494;11.974;2022-12-05T04:37:59;45.90;;;20.57;;
9970;SDS011;5026;51.494;11.974;2022-12-05T04:40:31;46.43;;;20.87;;
9970;SDS011;5026;51.494;11.974;2022-12-05T04:43:02;41.83;;;19.70;;
9970;SDS011;5026;51.494;11.974;2022-12-05T04:45:31;43.00;;;19.77;;
9970;SDS011;5026;51.494;11.974;2022-12-05T04:48:03;40.57;;;19.20;;
9970;SDS011;5026;51.494;11.974;2022-12-05T04:50:35;37.80;;;17.73;;
9970;SDS011;5026;51.494;11.974;2022-12-05T04:53:04;39.53;;;17.57;;
9970;SDS011;5026;51.494;11.974;2022-12-05T04:55:32;36.00;;;17.57;;
9970;SDS011;5026;51.494;11.974;2022-12-05T04:58:02;37.67;;;16.60;;
9970;SDS011;5026;51.494;11.974;2022-12-05T05:00:34;37.00;;;17.37;;
9970;SDS011;5026;51.494;11.974;2022-12-05T05:03:09;33.70;;;16.10;;
9970;SDS011;5026;51.494;11.974;2022-12-05T05:05:39;33.70;;;16.60;;
9970;SDS011;5026;51.494;11.974;2022-12-05T05:08:15;29.30;;;15.57;;
9970;SDS011;5026;51.494;11.974;2022-12-05T05:10:44;33.33;;;16.93;;
9970;SDS011;5026;51.494;11.974;2022-12-05T05:13:20;32.00;;;15.43;;
9970;SDS011;5026;51.494;11.974;2022-12-05T05:15:47;29.53;;;15.27;;
9970;SDS011;5026;51.494;11.974;2022-12-05T05:18:16;31.57;;;15.97;;
9970;SDS011;5026;51.494;11.974;2022-12-05T05:20:42;28.17;;;14.83;;
9970;SDS011;5026;51.494;11.974;2022-12-05T05:23:09;28.83;;;15.57;;
9970;SDS011;5026;51.494;11.974;2022-12-05T05:25:37;28.57;;;14.80;;
9970;SDS011;5026;51.494;11.974;2022-12-05T05:28:05;28.67;;;15.33;;
9970;SDS011;5026;51.494;11.974;2022-12-05T05:30:32;26.03;;;13.67;;
9970;SDS011;5026;51.494;11.974;2022-12-05T05:32:59;25.87;;;13.37;;
9970;SDS011;5026;51.494;11.974;2022-12-05T05:35:27;28.27;;;13.57;;
9970;SDS011;5026;51.494;11.974;2022-12-05T05:37:54;26.20;;;14.70;;
9970;SDS011;5026;51.494;11.974;2022-12-05T05:40:21;28.33;;;13.90;;
9970;SDS011;5026;51.494;11.974;2022-12-05T05:42:48;26.30;;;12.87;;
9970;SDS011;5026;51.494;11.974;2022-12-05T05:45:15;26.67;;;13.77;;
9970;SDS011;5026;51.494;11.974;2022-12-05T05:47:42;23.67;;;13.83;;
9970;SDS011;5026;51.494;11.974;2022-12-05T05:50:10;26.33;;;13.33;;
9970;SDS011;5026;51.494;11.974;2022-12-05T05:52:39;22.43;;;13.03;;
9970;SDS011;5026;51.494;11.974;2022-12-05T05:55:06;23.87;;;12.93;;
9970;SDS011;5026;51.494;11.974;2022-12-05T05:57:34;27.27;;;13.63;;
9970;SDS011;5026;51.494;11.974;2022-12-05T06:00:02;26.40;;;13.63;;
9970;SDS011;5026;51.494;11.974;2022-12-05T06:02:31;31.10;;;15.43;;
9970;SDS011;5026;51.494;11.974;2022-12-05T06:04:59;34.90;;;18.27;;
9970;SDS011;5026;51.494;11.974;2022-12-05T06:07:26;34.10;;;17.63;;
9970;SDS011;5026;51.494;11.974;2022-12-05T06:09:54;25.20;;;14.07;;
9970;SDS011;5026;51.494;11.974;2022-12-05T06:12:21;24.63;;;12.97;;
9970;SDS011;5026;51.494;11.974;2022-12-05T06:14:48;24.27;;;13.53;;
9970;SDS011;5026;51.494;11.974;2022-12-05T06:17:15;25.73;;;12.47;;
9970;SDS011;5026;51.494;11.974;2022-12-05T06:19:42;24.07;;;12.10;;
9970;SDS011;5026;51.494;11.974;2022-12-05T06:22:09;24.60;;;12.93;;
9970;SDS011;5026;51.494;11.974;2022-12-05T06:24:36;22.13;;;12.13;;
9970;SDS011;5026;51.494;11.974;2022-12-05T06:27:05;22.13;;;12.07;;
9970;SDS011;5026;51.494;11.974;2022-12-05T06:29:32;21.47;;;11.83;;
9970;SDS011;5026;51.494;11.974;2022-12-05T06:32:00;19.20;;;11.20;;
9970;SDS011;5026;51.494;11.974;2022-12-05T06:34:27;19.97;;;10.87;;
9970;SDS011;5026;51.494;11.974;2022-12-05T06:36:56;23.53;;;11.70;;
9970;SDS011;5026;51.494;11.974;2022-12-05T06:39:23;20.23;;;11.30;;
9970;SDS011;5026;51.494;11.974;2022-12-05T06:41:50;20.70;;;12.00;;
9970;SDS011;5026;51.494;11.974;2022-12-05T06:44:18;21.87;;;11.97;;
9970;SDS011;5026;51.494;11.974;2022-12-05T06:46:46;22.63;;;11.57;;
9970;SDS011;5026;51.494;11.974;2022-12-05T06:49:13;19.23;;;10.90;;
9970;SDS011;5026;51.494;11.974;2022-12-05T06:51:40;18.90;;;10.97;;
9970;SDS011;5026;51.494;11.974;2022-12-05T06:54:07;20.17;;;10.33;;
9970;SDS011;5026;51.494;11.974;2022-12-05T06:56:36;21.73;;;10.90;;
9970;SDS011;5026;51.494;11.974;2022-12-05T06:59:03;23.27;;;11.20;;
9970;SDS011;5026;51.494;11.974;2022-12-05T07:01:31;18.70;;;10.70;;
9970;SDS011;5026;51.494;11.974;2022-12-05T07:04:04;21.50;;;11.13;;
9970;SDS011;5026;51.494;11.974;2022-12-05T07:06:32;20.13;;;11.10;;
9970;SDS011;5026;51.494;11.974;2022-12-05T07:08:59;20.70;;;10.97;;
9970;SDS011;5026;51.494;11.974;2022-12-05T07:11:26;21.90;;;11.33;;
9970;SDS011;5026;51.494;11.974;2022-12-05T07:13:53;26.70;;;12.27;;
9970;SDS011;5026;51.494;11.974;2022-12-05T07:16:21;23.83;;;12.13;;
9970;SDS011;5026;51.494;11.974;2022-12-05T07:18:49;28.33;;;12.50;;
9970;SDS011;5026;51.494;11.974;2022-12-05T07:21:16;24.07;;;12.30;;
9970;SDS011;5026;51.494;11.974;2022-12-05T07:23:45;23.07;;;11.60;;
9970;SDS011;5026;51.494;11.974;2022-12-05T07:26:15;19.03;;;11.33;;
9970;SDS011;5026;51.494;11.974;2022-12-05T07:28:43;25.13;;;11.80;;
9970;SDS011;5026;51.494;11.974;2022-12-05T07:31:11;25.63;;;12.47;;
9970;SDS011;5026;51.494;11.974;2022-12-05T07:33:39;20.53;;;11.43;;
9970;SDS011;5026;51.494;11.974;2022-12-05T07:36:08;26.27;;;12.47;;
9970;SDS011;5026;51.494;11.974;2022-12-05T07:38:37;21.87;;;12.57;;
9970;SDS011;5026;51.494;11.974;2022-12-05T07:41:05;27.47;;;12.97;;
9970;SDS011;5026;51.494;11.974;2022-12-05T07:43:33;27.07;;;13.13;;
9970;SDS011;5026;51.494;11.974;2022-12-05T07:46:00;29.63;;;13.43;;
9970;SDS011;5026;51.494;11.974;2022-12-05T07:48:28;26.40;;;14.00;;
9970;SDS011;5026;51.494;11.974;2022-12-05T07:50:58;34.27;;;13.73;;
9970;SDS011;5026;51.494;11.974;2022-12-05T07:53:27;27.43;;;13.50;;
9970;SDS011;5026;51.494;11.974;2022-12-05T07:55:57;27.77;;;14.07;;
9970;SDS011;5026;51.494;11.974;2022-12-05T07:58:25;31.07;;;13.10;;
9970;SDS011;5026;51.494;11.974;2022-12-05T08:00:53;24.80;;;12.47;;
9970;SDS011;5026;51.494;11.974;2022-12-05T08:03:20;23.33;;;12.13;;
9970;SDS011;5026;51.494;11.974;2022-12-05T08:05:47;21.77;;;11.77;;
9970;SDS011;5026;51.494;11.974;2022-12-05T08:08:14;27.37;;;13.20;;
9970;SDS011;5026;51.494;11.974;2022-12-05T08:10:43;31.87;;;14.03;;
9970;SDS011;5026;51.494;11.974;2022-12-05T08:13:09;27.30;;;13.67;;
9970;SDS011;5026;51.494;11.974;2022-12-05T08:15:36;22.77;;;12.87;;
9970;SDS011;5026;51.494;11.974;2022-12-05T08:18:04;28.07;;;14.80;;
9970;SDS011;5026;51.494;11.974;2022-12-05T08:20:31;35.67;;;19.40;;
9970;SDS011;5026;51.494;11.974;2022-12-05T08:22:57;22.80;;;12.57;;
9970;SDS011;5026;51.494;11.974;2022-12-05T08:25:24;21.13;;;10.43;;
9970;SDS011;5026;51.494;11.974;2022-12-05T08:27:56;20.50;;;10.40;;
9970;SDS011;5026;51.494;11.974;2022-12-05T08:30:23;20.30;;;9.73;;
9970;SDS011;5026;51.494;11.974;2022-12-05T08:32:50;19.87;;;10.70;;
9970;SDS011;5026;51.494;11.974;2022-12-05T08:35:17;22.77;;;11.20;;
9970;SDS011;5026;51.494;11.974;2022-12-05T08:37:44;24.50;;;10.97;;
9970;SDS011;5026;51.494;11.974;2022-12-05T08:40:11;21.70;;;10.37;;
9970;SDS011;5026;51.494;11.974;2022-12-05T08:42:38;21.37;;;10.50;;
9970;SDS011;5026;51.494;11.974;2022-12-05T08:45:07;20.63;;;10.13;;
9970;SDS011;5026;51.494;11.974;2022-12-05T08:47:35;23.23;;;10.73;;
9970;SDS011;5026;51.494;11.974;2022-12-05T08:50:02;19.63;;;10.67;;
9970;SDS011;5026;51.494;11.974;2022-12-05T08:52:29;21.50;;;10.67;;
9970;SDS011;5026;51.494;11.974;2022-12-05T08:54:56;23.17;;;10.47;;
9970;SDS011;5026;51.494;11.974;2022-12-05T08:57:23;22.63;;;11.17;;
9970;SDS011;5026;51.494;11.974;2022-12-05T08:59:50;20.73;;;10.83;;
9970;SDS011;5026;51.494;11.974;2022-12-05T09:02:19;23.53;;;11.20;;
9970;SDS011;5026;51.494;11.974;2022-12-05T09:04:48;23.17;;;11.10;;
9970;SDS011;5026;51.494;11.974;2022-12-05T09:07:16;22.30;;;11.00;;
9970;SDS011;5026;51.494;11.974;2022-12-05T09:09:43;23.47;;;11.33;;
9970;SDS011;5026;51.494;11.974;2022-12-05T09:12:10;24.40;;;10.90;;
9970;SDS011;5026;51.494;11.974;2022-12-05T09:14:38;24.90;;;11.53;;
9970;SDS011;5026;51.494;11.974;2022-12-05T09:17:06;25.03;;;10.87;;
9970;SDS011;5026;51.494;11.974;2022-12-05T09:19:34;22.97;;;11.30;;
9970;SDS011;5026;51.494;11.974;2022-12-05T09:22:01;23.60;;;11.70;;
9970;SDS011;5026;51.494;11.974;2022-12-05T09:24:28;21.07;;;11.23;;
9970;SDS011;5026;51.494;11.974;2022-12-05T09:26:55;21.10;;;10.63;;
9970;SDS011;5026;51.494;11.974;2022-12-05T09:29:22;27.40;;;11.47;;
9970;SDS011;5026;51.494;11.974;2022-12-05T09:31:49;21.03;;;10.87;;
9970;SDS011;5026;51.494;11.974;2022-12-05T09:34:18;21.60;;;10.10;;
9970;SDS011;5026;51.494;11.974;2022-12-05T09:36:47;23.10;;;10.87;;
9970;SDS011;5026;51.494;11.974;2022-12-05T09:39:16;21.57;;;10.90;;
9970;SDS011;5026;51.494;11.974;2022-12-05T09:44:59;25.00;;;11.00;;
9970;SDS011;5026;51.494;11.974;2022-12-05T09:47:41;21.83;;;9.63;;
9970;SDS011;5026;51.494;11.974;2022-12-05T09:50:16;22.53;;;10.17;;
9970;SDS011;5026;51.494;11.974;2022-12-05T09:52:51;21.23;;;10.17;;
9970;SDS011;5026;51.494;11.974;2022-12-05T09:55:28;20.23;;;10.13;;
9970;SDS011;5026;51.494;11.974;2022-12-05T09:58:01;20.33;;;9.87;;
9970;SDS011;5026;51.494;11.974;2022-12-05T10:00:30;26.03;;;10.97;;
9970;SDS011;5026;51.494;11.974;2022-12-05T10:03:01;18.70;;;10.00;;
9970;SDS011;5026;51.494;11.974;2022-12-05T10:05:35;21.83;;;10.53;;
9970;SDS011;5026;51.494;11.974;2022-12-05T10:08:11;20.50;;;10.40;;
9970;SDS011;5026;51.494;11.974;2022-12-05T10:10:47;20.27;;;10.23;;
9970;SDS011;5026;51.494;11.974;2022-12-05T10:13:32;23.77;;;12.23;;
9970;SDS011;5026;51.494;11.974;2022-12-05T10:16:16;21.70;;;10.70;;
9970;SDS011;5026;51.494;11.974;2022-12-05T10:18:47;25.60;;;11.67;;
9970;SDS011;5026;51.494;11.974;2022-12-05T10:21:20;25.77;;;10.90;;
9970;SDS011;5026;51.494;11.974;2022-12-05T10:23:52;24.47;;;11.23;;
9970;SDS011;5026;51.494;11.974;2022-12-05T10:26:21;26.23;;;10.80;;
9970;SDS011;5026;51.494;11.974;2022-12-05T10:28:52;24.73;;;11.77;;
9970;SDS011;5026;51.494;11.974;2022-12-05T10:31:26;22.57;;;11.20;;
9970;SDS011;5026;51.494;11.974;2022-12-05T10:33:57;24.90;;;11.67;;
9970;SDS011;5026;51.494;11.974;2022-12-05T10:36:29;34.20;;;15.00;;
9970;SDS011;5026;51.494;11.974;2022-12-05T10:38:58;26.73;;;12.30;;
9970;SDS011;5026;51.494;11.974;2022-12-05T10:41:25;25.97;;;12.67;;
9970;SDS011;5026;51.494;11.974;2022-12-05T10:43:53;23.73;;;10.90;;
9970;SDS011;5026;51.494;11.974;2022-12-05T10:46:23;27.13;;;12.03;;
9970;SDS011;5026;51.494;11.974;2022-12-05T10:48:50;24.37;;;10.60;;
9970;SDS011;5026;51.494;11.974;2022-12-05T10:51:19;21.23;;;10.63;;
9970;SDS011;5026;51.494;11.974;2022-12-05T10:53:51;20.00;;;10.37;;
9970;SDS011;5026;51.494;11.974;2022-12-05T10:56:39;22.63;;;10.23;;
9970;SDS011;5026;51.494;11.974;2022-12-05T10:59:08;21.23;;;9.57;;
9970;SDS011;5026;51.494;11.974;2022-12-05T11:01:37;22.33;;;9.63;;
9970;SDS011;5026;51.494;11.974;2022-12-05T11:04:17;20.00;;;9.40;;
9970;SDS011;5026;51.494;11.974;2022-12-05T11:06:51;19.47;;;8.53;;
9970;SDS011;5026;51.494;11.974;2022-12-05T11:09:21;16.80;;;8.90;;
9970;SDS011;5026;51.494;11.974;2022-12-05T11:11:59;21.20;;;9.00;;
9970;SDS011;5026;51.494;11.974;2022-12-05T11:14:31;16.23;;;8.70;;
9970;SDS011;5026;51.494;11.974;2022-12-05T11:17:00;20.10;;;9.50;;
9970;SDS011;5026;51.494;11.974;2022-12-05T11:19:29;15.67;;;8.73;;
9970;SDS011;5026;51.494;11.974;2022-12-05T11:21:58;17.37;;;9.10;;
9970;SDS011;5026;51.494;11.974;2022-12-05T11:24:26;20.37;;;9.37;;
9970;SDS011;5026;51.494;11.974;2022-12-05T11:26:57;16.83;;;9.20;;
9970;SDS011;5026;51.494;11.974;2022-12-05T11:29:32;21.90;;;9.57;;
9970;SDS011;5026;51.494;11.974;2022-12-05T11:32:00;19.77;;;10.33;;
9970;SDS011;5026;51.494;11.974;2022-12-05T11:34:30;16.23;;;8.77;;
9970;SDS011;5026;51.494;11.974;2022-12-05T11:37:04;18.07;;;9.20;;
9970;SDS011;5026;51.494;11.974;2022-12-05T11:39:36;17.13;;;9.17;;
9970;SDS011;5026;51.494;11.974;2022-12-05T11:44:58;16.27;;;8.33;;
9970;SDS011;5026;51.494;11.974;2022-12-05T11:47:48;16.37;;;8.70;;
9970;SDS011;5026;51.494;11.974;2022-12-05T11:50:32;16.17;;;8.80;;
9970;SDS011;5026;51.494;11.974;2022-12-05T11:53:16;17.33;;;9.30;;
9970;SDS011;5026;51.494;11.974;2022-12-05T11:55:53;16.20;;;9.47;;
9970;SDS011;5026;51.494;11.974;2022-12-05T11:58:47;15.57;;;8.27;;
9970;SDS011;5026;51.494;11.974;2022-12-05T12:01:35;13.53;;;7.77;;
9970;SDS011;5026;51.494;11.974;2022-12-05T12:04:16;15.47;;;8.67;;
9970;SDS011;5026;51.494;11.974;2022-12-05T12:06:58;17.80;;;8.73;;
9970;SDS011;5026;51.494;11.974;2022-12-05T12:09:38;18.50;;;8.47;;
9970;SDS011;5026;51.494;11.974;2022-12-05T12:12:13;17.77;;;9.23;;
9970;SDS011;5026;51.494;11.974;2022-12-05T12:14:49;19.83;;;9.23;;
9970;SDS011;5026;51.494;11.974;2022-12-05T12:17:27;19.63;;;10.37;;
9970;SDS011;5026;51.494;11.974;2022-12-05T12:23:06;17.43;;;10.17;;
9970;SDS011;5026;51.494;11.974;2022-12-05T12:25:45;22.93;;;11.43;;
9970;SDS011;5026;51.494;11.974;2022-12-05T12:28:26;18.33;;;10.73;;
9970;SDS011;5026;51.494;11.974;2022-12-05T12:31:08;20.43;;;11.33;;
9970;SDS011;5026;51.494;11.974;2022-12-05T12:33:49;18.40;;;11.30;;
9970;SDS011;5026;51.494;11.974;2022-12-05T12:36:23;20.03;;;11.63;;
9970;SDS011;5026;51.494;11.974;2022-12-05T12:39:00;20.13;;;11.03;;
9970;SDS011;5026;51.494;11.974;2022-12-05T12:41:40;20.50;;;10.23;;
9970;SDS011;5026;51.494;11.974;2022-12-05T12:44:22;19.53;;;10.87;;
9970;SDS011;5026;51.494;11.974;2022-12-05T12:47:19;17.27;;;9.53;;
9970;SDS011;5026;51.494;11.974;2022-12-05T12:49:58;14.87;;;10.07;;
9970;SDS011;5026;51.494;11.974;2022-12-05T12:52:48;17.13;;;8.97;;
9970;SDS011;5026;51.494;11.974;2022-12-05T12:55:26;16.53;;;9.60;;
9970;SDS011;5026;51.494;11.974;2022-12-05T12:58:04;17.40;;;10.30;;
9970;SDS011;5026;51.494;11.974;2022-12-05T13:00:42;15.17;;;8.80;;
9970;SDS011;5026;51.494;11.974;2022-12-05T13:03:18;13.33;;;9.00;;
9970;SDS011;5026;51.494;11.974;2022-12-05T13:05:50;20.57;;;11.37;;
9970;SDS011;5026;51.494;11.974;2022-12-05T13:08:23;18.73;;;10.37;;
9970;SDS011;5026;51.494;11.974;2022-12-05T13:10:53;16.37;;;9.40;;
9970;SDS011;5026;51.494;11.974;2022-12-05T13:13:24;16.93;;;9.70;;
9970;SDS011;5026;51.494;11.974;2022-12-05T13:15:58;14.30;;;9.33;;
9970;SDS011;5026;51.494;11.974;2022-12-05T13:18:28;18.20;;;10.43;;
9970;SDS011;5026;51.494;11.974;2022-12-05T13:20:55;16.37;;;9.30;;
9970;SDS011;5026;51.494;11.974;2022-12-05T13:23:24;18.53;;;10.63;;
9970;SDS011;5026;51.494;11.974;2022-12-05T13:25:54;16.97;;;9.17;;
9970;SDS011;5026;51.494;11.974;2022-12-05T13:28:27;14.20;;;9.60;;
9970;SDS011;5026;51.494;11.974;2022-12-05T13:30:56;16.50;;;9.43;;
9970;SDS011;5026;51.494;11.974;2022-12-05T13:33:26;15.27;;;9.00;;
9970;SDS011;5026;51.494;11.974;2022-12-05T13:36:02;12.13;;;8.43;;
9970;SDS011;5026;51.494;11.974;2022-12-05T13:38:56;13.80;;;8.93;;
9970;SDS011;5026;51.494;11.974;2022-12-05T13:41:43;17.53;;;10.17;;
9970;SDS011;5026;51.494;11.974;2022-12-05T13:44:30;19.03;;;10.00;;
9970;SDS011;5026;51.494;11.974;2022-12-05T13:47:01;19.53;;;10.33;;
9970;SDS011;5026;51.494;11.974;2022-12-05T13:49:36;16.03;;;10.10;;
9970;SDS011;5026;51.494;11.974;2022-12-05T13:52:11;15.80;;;10.10;;
9970;SDS011;5026;51.494;11.974;2022-12-05T13:54:42;17.17;;;10.20;;
9970;SDS011;5026;51.494;11.974;2022-12-05T14:02:59;17.37;;;9.97;;
9970;SDS011;5026;51.494;11.974;2022-12-05T14:05:46;19.10;;;10.43;;
9970;SDS011;5026;51.494;11.974;2022-12-05T14:11:16;18.10;;;11.00;;
9970;SDS011;5026;51.494;11.974;2022-12-05T14:13:43;18.10;;;11.13;;
9970;SDS011;5026;51.494;11.974;2022-12-05T14:19:11;17.73;;;11.00;;
9970;SDS011;5026;51.494;11.974;2022-12-05T14:22:04;18.10;;;11.83;;
9970;SDS011;5026;51.494;11.974;2022-12-05T14:24:43;18.40;;;11.67;;
9970;SDS011;5026;51.494;11.974;2022-12-05T14:27:17;18.97;;;11.77;;
9970;SDS011;5026;51.494;11.974;2022-12-05T14:29:54;19.70;;;11.67;;
9970;SDS011;5026;51.494;11.974;2022-12-05T14:32:28;18.47;;;11.37;;
9970;SDS011;5026;51.494;11.974;2022-12-05T14:35:00;19.37;;;11.57;;
9970;SDS011;5026;51.494;11.974;2022-12-05T14:37:38;19.37;;;11.17;;
9970;SDS011;5026;51.494;11.974;2022-12-05T14:40:16;20.50;;;12.90;;
9970;SDS011;5026;51.494;11.974;2022-12-05T14:42:49;19.20;;;12.33;;
9970;SDS011;5026;51.494;11.974;2022-12-05T14:45:23;18.00;;;11.53;;
9970;SDS011;5026;51.494;11.974;2022-12-05T14:47:54;18.53;;;11.67;;
9970;SDS011;5026;51.494;11.974;2022-12-05T14:50:33;19.70;;;12.47;;
9970;SDS011;5026;51.494;11.974;2022-12-05T14:53:16;22.63;;;12.33;;
9970;SDS011;5026;51.494;11.974;2022-12-05T14:55:50;20.33;;;12.13;;
9970;SDS011;5026;51.494;11.974;2022-12-05T14:58:20;23.10;;;13.40;;
9970;SDS011;5026;51.494;11.974;2022-12-05T15:00:57;21.27;;;12.50;;
9970;SDS011;5026;51.494;11.974;2022-12-05T15:03:28;18.70;;;12.73;;
9970;SDS011;5026;51.494;11.974;2022-12-05T15:05:58;20.80;;;12.17;;
9970;SDS011;5026;51.494;11.974;2022-12-05T15:08:28;23.87;;;13.40;;
9970;SDS011;5026;51.494;11.974;2022-12-05T15:10:58;18.03;;;11.60;;
9970;SDS011;5026;51.494;11.974;2022-12-05T15:13:26;19.50;;;12.20;;
9970;SDS011;5026;51.494;11.974;2022-12-05T15:15:58;20.17;;;11.83;;
9970;SDS011;5026;51.494;11.974;2022-12-05T15:18:30;20.57;;;12.20;;
9970;SDS011;5026;51.494;11.974;2022-12-05T15:21:03;19.20;;;12.60;;
9970;SDS011;5026;51.494;11.974;2022-12-05T15:23:39;18.47;;;11.33;;